Time;durP1;ratioP1;P1;durP2;ratioP2;P2;SDS_P1;SDS_P2;PMS_P1;PMS_P2;Temp;Humidity;BMP_temperature;BMP_pressure;BME280_temperature;BME280_humidity;BME280_pressure;Samples;Min_cycle;Max_cycle;Signal;HPM_P1;HPM_P2
2023/04/04 00:01:26;;;;;;;15.85;3.15;;;;;;;;;;5045646;28;20739;-75
2023/04/04 00:03:52;;;;;;;8.95;2.67;;;;;;;;;;5046188;28;20565;-75
2023/04/04 00:06:19;;;;;;;9.90;2.53;;;;;;;;;;5044026;28;20531;-75
2023/04/04 00:08:45;;;;;;;18.85;3.25;;;;;;;;;;5046078;28;20110;-75
2023/04/04 00:11:12;;;;;;;10.50;2.67;;;;;;;;;;5045386;28;20479;-73
2023/04/04 00:13:38;;;;;;;6.50;2.53;;;;;;;;;;5045807;28;20064;-75
2023/04/04 00:16:05;;;;;;;8.77;2.53;;;;;;;;;;5044350;28;20021;-74
2023/04/04 00:18:32;;;;;;;7.43;3.08;;;;;;;;;;5051295;28;20824;-75
2023/04/04 00:20:58;;;;;;;12.38;2.83;;;;;;;;;;5045591;28;20044;-75
2023/04/04 00:23:24;;;;;;;12.00;2.42;;;;;;;;;;5046254;28;20393;-75
2023/04/04 00:25:51;;;;;;;9.75;2.78;;;;;;;;;;5044932;28;20034;-74
2023/04/04 00:28:18;;;;;;;10.05;2.53;;;;;;;;;;5046217;28;20063;-74
2023/04/04 00:30:45;;;;;;;10.52;2.60;;;;;;;;;;5046221;28;20032;-74
2023/04/04 00:33:11;;;;;;;17.10;2.70;;;;;;;;;;5044269;28;20075;-75
2023/04/04 00:35:38;;;;;;;12.10;2.60;;;;;;;;;;5045616;28;20021;-75
2023/04/04 00:38:04;;;;;;;7.60;2.35;;;;;;;;;;5045257;28;20086;-74
2023/04/04 00:40:30;;;;;;;10.65;2.08;;;;;;;;;;5045854;28;20119;-75
2023/04/04 00:42:58;;;;;;;14.23;2.67;;;;;;;;;;5045518;28;20082;-75
2023/04/04 00:45:24;;;;;;;9.82;2.70;;;;;;;;;;5043231;28;20513;-74
2023/04/04 00:47:51;;;;;;;12.70;2.90;;;;;;;;;;5045695;28;20596;-75
2023/04/04 00:50:17;;;;;;;15.50;2.92;;;;;;;;;;5043585;28;20669;-75
2023/04/04 00:52:43;;;;;;;12.18;2.60;;;;;;;;;;5042442;28;20448;-75
2023/04/04 00:55:09;;;;;;;12.43;3.03;;;;;;;;;;5040005;28;20025;-75
2023/04/04 00:57:35;;;;;;;11.27;3.40;;;;;;;;;;5045695;28;20021;-75
2023/04/04 01:00:06;;;;;;;12.77;3.00;;;;;;;;;;5044935;28;20040;-75
2023/04/04 01:02:32;;;;;;;9.25;2.47;;;;;;;;;;5045248;28;20031;-75
2023/04/04 01:04:59;;;;;;;11.70;2.72;;;;;;;;;;5044112;28;20025;-75
2023/04/04 01:07:25;;;;;;;13.82;2.20;;;;;;;;;;5045428;28;20037;-75
2023/04/04 01:09:51;;;;;;;10.65;2.60;;;;;;;;;;5045202;28;20033;-75
2023/04/04 01:12:18;;;;;;;13.68;2.90;;;;;;;;;;5043530;28;20572;-74
2023/04/04 01:14:44;;;;;;;12.82;2.80;;;;;;;;;;5045129;28;20093;-75
2023/04/04 01:17:10;;;;;;;12.88;3.00;;;;;;;;;;5044855;28;20045;-75
2023/04/04 01:19:43;;;;;;;10.43;2.42;;;;;;;;;;5043812;28;20029;-75
2023/04/04 01:22:09;;;;;;;17.05;3.83;;;;;;;;;;5039089;28;20043;-75
2023/04/04 01:24:36;;;;;;;18.80;3.92;;;;;;;;;;5037604;28;20104;-75
2023/04/04 01:27:02;;;;;;;11.05;2.55;;;;;;;;;;5037971;28;20102;-75
2023/04/04 01:29:28;;;;;;;14.00;2.65;;;;;;;;;;5043467;28;20028;-74
2023/04/04 01:32:03;;;;;;;9.43;2.60;;;;;;;;;;5028552;28;20061;-74
2023/04/04 01:34:34;;;;;;;15.68;2.83;;;;;;;;;;5038227;28;20036;-75
2023/04/04 01:37:03;;;;;;;13.93;2.83;;;;;;;;;;5043671;28;20013;-75
2023/04/04 01:39:39;;;;;;;8.02;2.22;;;;;;;;;;5043733;28;20202;-75
2023/04/04 01:42:06;;;;;;;7.85;2.47;;;;;;;;;;5037086;28;20074;-75
2023/04/04 01:44:32;;;;;;;11.60;2.90;;;;;;;;;;5041986;28;20021;-75
2023/04/04 01:46:58;;;;;;;14.88;3.05;;;;;;;;;;5043867;28;20029;-75
2023/04/04 01:49:25;;;;;;;9.77;2.70;;;;;;;;;;5041599;28;20033;-75
2023/04/04 01:51:52;;;;;;;18.65;3.88;;;;;;;;;;5035345;28;20095;-74
2023/04/04 01:54:18;;;;;;;15.18;3.08;;;;;;;;;;5043700;28;20525;-75
2023/04/04 01:56:47;;;;;;;13.02;2.35;;;;;;;;;;5043411;28;20056;-75
2023/04/04 01:59:14;;;;;;;10.57;2.53;;;;;;;;;;5037686;28;20641;-75
2023/04/04 02:01:40;;;;;;;13.27;2.85;;;;;;;;;;5037981;28;20524;-75
2023/04/04 02:04:07;;;;;;;10.30;2.88;;;;;;;;;;5043311;28;20095;-75
2023/04/04 02:06:33;;;;;;;10.48;2.42;;;;;;;;;;5038372;28;20021;-74
2023/04/04 02:08:59;;;;;;;11.20;2.65;;;;;;;;;;5043588;28;20021;-75
2023/04/04 02:11:26;;;;;;;12.43;2.78;;;;;;;;;;5042272;28;20029;-75
2023/04/04 02:13:52;;;;;;;12.10;3.10;;;;;;;;;;5038461;28;20483;-75
2023/04/04 02:16:18;;;;;;;15.90;2.83;;;;;;;;;;5042898;28;20132;-75
2023/04/04 02:18:44;;;;;;;14.07;3.30;;;;;;;;;;5047199;28;20309;-74
2023/04/04 02:21:10;;;;;;;11.32;2.95;;;;;;;;;;5046022;28;20654;-75
2023/04/04 02:23:37;;;;;;;13.82;3.25;;;;;;;;;;5044460;28;20495;-75
2023/04/04 02:26:04;;;;;;;16.00;3.17;;;;;;;;;;5046091;28;20035;-74
2023/04/04 02:28:30;;;;;;;9.20;2.38;;;;;;;;;;5045831;28;20032;-75
2023/04/04 02:31:01;;;;;;;10.57;2.67;;;;;;;;;;5044853;28;20116;-75
2023/04/04 02:33:27;;;;;;;8.45;2.60;;;;;;;;;;5046128;28;20028;-75
2023/04/04 02:35:57;;;;;;;9.50;2.30;;;;;;;;;;5046156;28;20043;-74
2023/04/04 02:38:24;;;;;;;11.27;3.00;;;;;;;;;;5046084;28;20127;-75
2023/04/04 02:40:50;;;;;;;10.15;2.72;;;;;;;;;;5051090;28;20029;-74
2023/04/04 02:43:17;;;;;;;10.63;2.88;;;;;;;;;;5038856;28;20025;-75
2023/04/04 02:45:43;;;;;;;8.45;2.50;;;;;;;;;;5042580;28;20393;-74
2023/04/04 02:48:09;;;;;;;11.77;2.55;;;;;;;;;;5051271;28;20127;-75
2023/04/04 02:50:38;;;;;;;13.38;2.80;;;;;;;;;;5043443;28;20100;-75
2023/04/04 02:53:04;;;;;;;14.70;3.17;;;;;;;;;;5021178;28;20994;-73
2023/04/04 02:55:30;;;;;;;14.07;2.97;;;;;;;;;;5045176;28;20057;-75
2023/04/04 02:57:57;;;;;;;13.00;3.00;;;;;;;;;;5042312;28;20029;-75
2023/04/04 03:00:23;;;;;;;17.20;2.90;;;;;;;;;;5043718;28;20460;-74
2023/04/04 03:02:56;;;;;;;10.07;2.97;;;;;;;;;;5051210;28;20025;-75
2023/04/04 03:05:25;;;;;;;17.85;3.60;;;;;;;;;;5042885;28;20033;-74
2023/04/04 03:07:58;;;;;;;13.65;3.08;;;;;;;;;;5042475;28;20615;-74
2023/04/04 03:10:25;;;;;;;9.10;2.65;;;;;;;;;;5043687;28;20139;-74
2023/04/04 03:12:51;;;;;;;12.40;3.40;;;;;;;;;;5042915;28;20013;-74
2023/04/04 03:15:17;;;;;;;13.15;3.15;;;;;;;;;;5042409;28;20021;-74
2023/04/04 03:17:43;;;;;;;8.38;2.88;;;;;;;;;;5048094;28;20064;-74
2023/04/04 03:20:10;;;;;;;12.40;3.05;;;;;;;;;;5045444;28;20033;-75
2023/04/04 03:22:37;;;;;;;9.68;3.20;;;;;;;;;;5040890;28;20113;-75
2023/04/04 03:25:03;;;;;;;9.50;2.60;;;;;;;;;;5040629;28;20021;-74
2023/04/04 03:27:33;;;;;;;6.90;2.70;;;;;;;;;;5040735;28;20363;-74
2023/04/04 03:29:59;;;;;;;9.57;3.47;;;;;;;;;;5042218;28;20142;-74
2023/04/04 03:32:26;;;;;;;16.10;5.22;;;;;;;;;;5052193;28;20058;-74
2023/04/04 03:34:52;;;;;;;11.52;3.33;;;;;;;;;;5044304;28;20017;-74
2023/04/04 03:37:18;;;;;;;6.32;2.72;;;;;;;;;;5044392;28;20176;-75
2023/04/04 03:39:45;;;;;;;6.95;2.25;;;;;;;;;;5051952;28;20501;-74
2023/04/04 03:42:11;;;;;;;7.80;2.10;;;;;;;;;;5042500;28;20121;-75
2023/04/04 03:44:40;;;;;;;7.22;2.25;;;;;;;;;;5043739;28;20033;-75
2023/04/04 03:47:07;;;;;;;10.27;2.75;;;;;;;;;;5044339;28;20100;-75
2023/04/04 03:49:36;;;;;;;6.25;2.60;;;;;;;;;;5044363;28;20025;-75
2023/04/04 03:52:02;;;;;;;9.18;3.30;;;;;;;;;;5036360;28;20059;-74
2023/04/04 03:54:29;;;;;;;5.13;2.58;;;;;;;;;;5051637;28;20032;-75
2023/04/04 03:56:56;;;;;;;5.53;2.58;;;;;;;;;;5043019;28;20036;-74
2023/04/04 03:59:22;;;;;;;6.88;2.15;;;;;;;;;;5044227;28;20070;-74
2023/04/04 04:01:48;;;;;;;7.20;2.15;;;;;;;;;;5042146;28;20101;-75
2023/04/04 04:04:14;;;;;;;10.07;1.98;;;;;;;;;;5042961;28;20025;-74
2023/04/04 04:06:41;;;;;;;6.15;2.05;;;;;;;;;;5043803;28;20040;-74
2023/04/04 04:09:08;;;;;;;6.18;1.80;;;;;;;;;;5043761;28;20045;-74
2023/04/04 04:11:35;;;;;;;9.77;2.25;;;;;;;;;;5049140;28;20021;-74
2023/04/04 04:14:02;;;;;;;6.75;2.38;;;;;;;;;;5042561;28;20147;-74
2023/04/04 04:16:28;;;;;;;10.27;3.30;;;;;;;;;;5043791;28;20046;-74
2023/04/04 04:18:54;;;;;;;6.70;2.17;;;;;;;;;;5041321;28;20025;-74
2023/04/04 04:21:21;;;;;;;4.88;2.20;;;;;;;;;;5043986;28;20543;-74
2023/04/04 04:23:47;;;;;;;7.88;1.90;;;;;;;;;;5050880;28;20040;-74
2023/04/04 04:26:13;;;;;;;4.03;1.75;;;;;;;;;;5041837;28;20485;-74
2023/04/04 04:28:39;;;;;;;3.50;1.50;;;;;;;;;;5043649;28;20036;-74
2023/04/04 04:31:06;;;;;;;6.50;1.55;;;;;;;;;;5043460;28;20673;-74
2023/04/04 04:33:32;;;;;;;3.45;1.40;;;;;;;;;;5041620;28;20036;-73
2023/04/04 04:36:00;;;;;;;2.20;1.30;;;;;;;;;;5043410;28;20151;-74
2023/04/04 04:38:27;;;;;;;2.88;1.40;;;;;;;;;;5050685;28;20108;-74
2023/04/04 04:40:54;;;;;;;3.40;1.42;;;;;;;;;;5042584;28;20040;-74
2023/04/04 04:43:20;;;;;;;4.85;1.30;;;;;;;;;;5041306;28;20098;-73
2023/04/04 04:45:47;;;;;;;2.70;1.55;;;;;;;;;;5043108;28;20579;-75
2023/04/04 04:48:15;;;;;;;3.72;1.42;;;;;;;;;;5043372;28;20075;-75
2023/04/04 04:50:43;;;;;;;3.88;1.50;;;;;;;;;;5041886;28;20580;-73
2023/04/04 04:53:09;;;;;;;2.95;1.25;;;;;;;;;;5050656;28;20020;-73
2023/04/04 04:55:35;;;;;;;2.22;1.50;;;;;;;;;;5043052;28;20074;-73
2023/04/04 04:58:03;;;;;;;5.35;1.85;;;;;;;;;;5043186;28;20036;-74
2023/04/04 05:00:29;;;;;;;5.65;1.83;;;;;;;;;;5049984;28;20097;-74
2023/04/04 05:02:55;;;;;;;3.83;1.63;;;;;;;;;;5041564;28;20025;-74
2023/04/04 05:05:22;;;;;;;6.78;1.50;;;;;;;;;;5042178;28;20032;-74
2023/04/04 05:07:48;;;;;;;6.40;1.83;;;;;;;;;;5043028;28;20033;-74
2023/04/04 05:10:14;;;;;;;3.30;1.50;;;;;;;;;;5035509;28;20096;-73
2023/04/04 05:12:44;;;;;;;2.67;1.58;;;;;;;;;;5041001;28;20887;-74
2023/04/04 05:15:13;;;;;;;5.22;1.67;;;;;;;;;;5042291;28;20025;-74
2023/04/04 05:17:39;;;;;;;3.22;1.45;;;;;;;;;;5042334;28;20106;-75
2023/04/04 05:20:06;;;;;;;2.90;1.38;;;;;;;;;;5040715;28;20029;-74
2023/04/04 05:22:33;;;;;;;3.17;1.60;;;;;;;;;;5041073;28;20056;-75
2023/04/04 05:25:02;;;;;;;5.03;2.40;;;;;;;;;;5040191;28;20143;-74
2023/04/04 05:27:28;;;;;;;3.72;1.65;;;;;;;;;;5042471;28;20055;-74
2023/04/04 05:29:55;;;;;;;3.78;1.60;;;;;;;;;;5042001;28;20033;-74
2023/04/04 05:32:21;;;;;;;2.60;1.65;;;;;;;;;;5041947;28;20027;-75
2023/04/04 05:34:47;;;;;;;5.13;1.60;;;;;;;;;;5042871;28;20082;-75
2023/04/04 05:37:14;;;;;;;3.40;1.67;;;;;;;;;;5057437;28;20029;-75
2023/04/04 05:39:40;;;;;;;4.20;1.70;;;;;;;;;;5044562;28;20020;-74
2023/04/04 05:42:06;;;;;;;6.28;2.20;;;;;;;;;;5043038;28;20051;-74
2023/04/04 05:44:33;;;;;;;4.40;2.15;;;;;;;;;;5042643;28;20104;-73
2023/04/04 05:46:59;;;;;;;4.15;1.60;;;;;;;;;;5042801;28;20116;-73
2023/04/04 05:49:25;;;;;;;7.47;1.75;;;;;;;;;;5044184;28;20025;-74
2023/04/04 05:51:51;;;;;;;2.42;1.50;;;;;;;;;;5042583;28;20029;-74
2023/04/04 05:54:17;;;;;;;3.20;1.60;;;;;;;;;;5047748;28;20058;-73
2023/04/04 05:56:43;;;;;;;3.53;1.45;;;;;;;;;;5040167;28;20020;-74
2023/04/04 05:59:10;;;;;;;6.38;1.88;;;;;;;;;;5042066;28;20505;-74
2023/04/04 06:01:36;;;;;;;4.15;2.00;;;;;;;;;;5041720;28;20494;-74
2023/04/04 06:04:02;;;;;;;2.33;1.77;;;;;;;;;;5045779;28;20108;-74
2023/04/04 06:06:28;;;;;;;5.28;2.15;;;;;;;;;;5039122;28;20370;-73
2023/04/04 06:08:55;;;;;;;4.57;1.55;;;;;;;;;;5041580;28;20116;-74
2023/04/04 06:11:25;;;;;;;6.03;1.65;;;;;;;;;;5041600;28;20424;-74
2023/04/04 06:13:52;;;;;;;4.10;1.85;;;;;;;;;;5050931;28;20024;-75
2023/04/04 06:16:18;;;;;;;4.93;1.95;;;;;;;;;;5043607;28;20782;-74
2023/04/04 06:18:44;;;;;;;5.43;1.88;;;;;;;;;;5043740;28;20077;-74
2023/04/04 06:21:12;;;;;;;6.45;1.90;;;;;;;;;;5049575;28;20108;-74
2023/04/04 06:23:38;;;;;;;6.88;2.30;;;;;;;;;;5043999;28;20021;-74
2023/04/04 06:26:05;;;;;;;4.07;2.58;;;;;;;;;;5044241;28;20025;-75
2023/04/04 06:28:31;;;;;;;5.53;3.40;;;;;;;;;;5043785;28;20034;-75
2023/04/04 06:30:58;;;;;;;5.95;2.15;;;;;;;;;;5043630;28;20031;-75
2023/04/04 06:33:24;;;;;;;5.00;1.98;;;;;;;;;;5043715;28;20575;-75
2023/04/04 06:35:50;;;;;;;6.35;2.17;;;;;;;;;;5048527;28;20124;-75
2023/04/04 06:38:16;;;;;;;11.65;2.15;;;;;;;;;;5043130;28;20033;-75
2023/04/04 06:40:43;;;;;;;6.72;2.50;;;;;;;;;;5043323;28;20021;-75
2023/04/04 06:43:09;;;;;;;5.10;2.05;;;;;;;;;;5050890;28;20107;-74
2023/04/04 06:45:36;;;;;;;5.65;1.83;;;;;;;;;;5042523;28;20021;-74
2023/04/04 06:48:02;;;;;;;4.45;2.17;;;;;;;;;;5041863;28;20017;-74
2023/04/04 06:50:31;;;;;;;6.00;2.15;;;;;;;;;;5051809;28;20048;-74
2023/04/04 06:52:58;;;;;;;3.83;2.08;;;;;;;;;;5043270;28;20100;-75
2023/04/04 06:55:24;;;;;;;6.65;3.47;;;;;;;;;;5042702;28;20498;-75
2023/04/04 06:57:50;;;;;;;3.78;2.47;;;;;;;;;;5049753;28;20062;-75
2023/04/04 07:00:17;;;;;;;6.20;2.65;;;;;;;;;;5042783;28;20174;-74
2023/04/04 07:02:43;;;;;;;4.85;2.42;;;;;;;;;;5044642;28;20020;-75
2023/04/04 07:05:09;;;;;;;4.85;1.95;;;;;;;;;;5047380;28;20047;-75
2023/04/04 07:07:35;;;;;;;4.07;2.42;;;;;;;;;;5045485;28;20493;-75
2023/04/04 07:10:02;;;;;;;5.18;2.53;;;;;;;;;;5047566;28;20107;-74
2023/04/04 07:12:30;;;;;;;4.43;1.90;;;;;;;;;;5054864;28;20017;-75
2023/04/04 07:14:57;;;;;;;6.35;2.60;;;;;;;;;;5046730;28;20082;-75
2023/04/04 07:17:24;;;;;;;14.10;2.47;;;;;;;;;;5040858;28;21429;-75
2023/04/04 07:19:50;;;;;;;4.13;1.80;;;;;;;;;;5045967;28;20031;-77
2023/04/04 07:22:16;;;;;;;7.68;1.80;;;;;;;;;;5045127;28;20413;-78
2023/04/04 07:24:42;;;;;;;4.10;1.77;;;;;;;;;;5046051;28;20448;-77
2023/04/04 07:27:10;;;;;;;6.50;2.03;;;;;;;;;;5045654;28;20029;-78
2023/04/04 07:29:36;;;;;;;3.90;1.50;;;;;;;;;;5047321;28;20029;-77
2023/04/04 07:32:02;;;;;;;4.60;2.15;;;;;;;;;;5046693;28;20473;-77
2023/04/04 07:34:28;;;;;;;6.55;2.33;;;;;;;;;;5045597;28;20037;-77
2023/04/04 07:36:55;;;;;;;3.85;1.70;;;;;;;;;;5046448;28;20017;-78
2023/04/04 07:39:21;;;;;;;8.63;1.90;;;;;;;;;;5045293;28;20038;-77
2023/04/04 07:41:47;;;;;;;6.55;2.03;;;;;;;;;;5045959;28;20126;-77
2023/04/04 07:44:14;;;;;;;7.70;2.33;;;;;;;;;;5046665;28;20436;-76
2023/04/04 07:46:40;;;;;;;8.35;2.00;;;;;;;;;;5046866;28;20017;-77
2023/04/04 07:49:07;;;;;;;8.25;2.22;;;;;;;;;;5044544;28;20032;-77
2023/04/04 07:51:34;;;;;;;7.43;2.65;;;;;;;;;;5049504;28;20028;-77
2023/04/04 07:54:01;;;;;;;10.07;3.22;;;;;;;;;;5045700;28;20081;-78
2023/04/04 07:56:27;;;;;;;5.97;2.55;;;;;;;;;;5045819;28;20108;-78
2023/04/04 07:58:54;;;;;;;13.52;3.22;;;;;;;;;;5045388;28;20648;-77
2023/04/04 08:01:20;;;;;;;7.82;2.72;;;;;;;;;;5044301;28;20284;-78
2023/04/04 08:03:46;;;;;;;10.02;2.88;;;;;;;;;;5046100;28;20100;-77
2023/04/04 08:06:12;;;;;;;8.80;2.58;;;;;;;;;;5045689;28;20032;-77
2023/04/04 08:08:40;;;;;;;5.72;2.20;;;;;;;;;;5046202;28;20405;-79
2023/04/04 08:11:06;;;;;;;4.15;2.10;;;;;;;;;;5044372;28;20021;-79
2023/04/04 08:13:32;;;;;;;4.75;2.20;;;;;;;;;;5040077;28;20601;-77
2023/04/04 08:15:58;;;;;;;7.35;2.05;;;;;;;;;;5043794;28;20029;-77
2023/04/04 08:18:26;;;;;;;5.72;1.77;;;;;;;;;;5039593;28;20044;-78
2023/04/04 08:20:52;;;;;;;5.28;1.85;;;;;;;;;;5035518;28;20037;-77
2023/04/04 08:23:18;;;;;;;7.22;2.03;;;;;;;;;;5037696;28;20108;-78
2023/04/04 08:25:45;;;;;;;6.60;1.85;;;;;;;;;;5037812;28;20039;-78
2023/04/04 08:28:12;;;;;;;6.28;2.33;;;;;;;;;;5044758;28;20036;-77
2023/04/04 08:30:38;;;;;;;9.57;3.28;;;;;;;;;;5041064;28;20021;-77
2023/04/04 08:33:05;;;;;;;11.13;3.17;;;;;;;;;;5039496;28;20017;-77
2023/04/04 08:35:31;;;;;;;7.88;2.10;;;;;;;;;;5041957;28;20686;-77
2023/04/04 08:37:57;;;;;;;9.23;2.97;;;;;;;;;;5036842;28;20049;-77
2023/04/04 08:40:24;;;;;;;14.23;3.95;;;;;;;;;;5040370;28;20279;-77
2023/04/04 08:42:50;;;;;;;12.20;3.97;;;;;;;;;;5034649;28;20045;-77
2023/04/04 08:45:20;;;;;;;11.27;2.88;;;;;;;;;;5040792;28;20021;-77
2023/04/04 08:47:49;;;;;;;12.30;4.05;;;;;;;;;;5036984;28;20473;-77
2023/04/04 08:50:16;;;;;;;11.40;3.13;;;;;;;;;;5043226;28;20096;-77
2023/04/04 08:52:43;;;;;;;14.18;3.28;;;;;;;;;;5036129;28;20466;-77
2023/04/04 08:55:10;;;;;;;16.65;4.07;;;;;;;;;;5033432;28;20705;-77
2023/04/04 08:57:36;;;;;;;16.67;5.10;;;;;;;;;;5035511;28;20436;-77
2023/04/04 09:00:05;;;;;;;15.68;4.07;;;;;;;;;;5038983;28;20021;-77
2023/04/04 09:02:31;;;;;;;13.77;4.28;;;;;;;;;;5040619;28;20025;-78
2023/04/04 09:04:58;;;;;;;7.07;3.15;;;;;;;;;;5031020;28;20040;-77
2023/04/04 09:07:25;;;;;;;10.50;3.10;;;;;;;;;;5036233;28;20040;-77
2023/04/04 09:09:51;;;;;;;7.45;2.63;;;;;;;;;;5037805;28;20033;-77
2023/04/04 09:12:18;;;;;;;6.70;2.50;;;;;;;;;;5043453;28;20242;-77
2023/04/04 09:14:46;;;;;;;7.57;2.78;;;;;;;;;;5036360;28;20047;-77
2023/04/04 09:17:12;;;;;;;7.63;2.88;;;;;;;;;;5042953;28;20041;-77
2023/04/04 09:19:38;;;;;;;11.45;2.63;;;;;;;;;;5037117;28;20037;-78
2023/04/04 09:22:08;;;;;;;8.98;2.92;;;;;;;;;;5043480;28;20071;-77
2023/04/04 09:24:39;;;;;;;9.50;3.13;;;;;;;;;;5032925;28;20021;-77
2023/04/04 09:27:07;;;;;;;4.40;2.30;;;;;;;;;;5042560;28;20112;-78
2023/04/04 09:29:33;;;;;;;11.15;2.92;;;;;;;;;;5025654;28;20025;-76
2023/04/04 09:32:00;;;;;;;9.60;3.05;;;;;;;;;;5021182;28;20637;-77
2023/04/04 09:34:28;;;;;;;7.78;2.78;;;;;;;;;;5030133;28;20071;-77
2023/04/04 09:36:55;;;;;;;7.85;3.08;;;;;;;;;;5040501;28;20025;-77
2023/04/04 09:39:22;;;;;;;13.57;4.32;;;;;;;;;;5035282;28;20769;-77
2023/04/04 09:41:49;;;;;;;9.40;3.83;;;;;;;;;;5042961;28;20482;-77
2023/04/04 09:44:16;;;;;;;8.82;4.00;;;;;;;;;;5030841;28;20026;-77
2023/04/04 09:46:42;;;;;;;12.07;3.67;;;;;;;;;;5041800;28;20057;-77
2023/04/04 09:49:19;;;;;;;9.18;3.78;;;;;;;;;;5040743;28;20217;-77
2023/04/04 09:51:48;;;;;;;8.57;3.45;;;;;;;;;;5041099;28;20029;-77
2023/04/04 09:54:20;;;;;;;9.60;3.50;;;;;;;;;;5042916;28;20106;-77
2023/04/04 09:56:46;;;;;;;;;;;;;;;;;;5043332;28;20024;-77
2023/04/04 09:59:13;;;;;;;12.63;4.07;;;;;;;;;;5043358;28;19913;-78
2023/04/04 10:01:39;;;;;;;11.50;4.05;;;;;;;;;;5024420;28;20123;-76
2023/04/04 10:04:06;;;;;;;13.75;4.57;;;;;;;;;;5031439;28;20045;-76
2023/04/04 10:06:32;;;;;;;15.38;3.60;;;;;;;;;;5041310;28;20021;-77
2023/04/04 10:08:59;;;;;;;16.58;4.38;;;;;;;;;;5039421;28;20386;-77
2023/04/04 10:11:29;;;;;;;13.15;3.30;;;;;;;;;;5041097;28;20075;-76
2023/04/04 10:13:56;;;;;;;10.75;3.20;;;;;;;;;;5034838;28;20021;-77
2023/04/04 10:16:24;;;;;;;14.73;3.85;;;;;;;;;;5042612;28;20051;-76
2023/04/04 10:18:51;;;;;;;11.25;3.13;;;;;;;;;;5043850;28;20044;-77
2023/04/04 10:21:18;;;;;;;13.52;3.83;;;;;;;;;;5043130;28;20501;-77
2023/04/04 10:23:45;;;;;;;11.93;3.38;;;;;;;;;;5050026;28;20809;-75
2023/04/04 10:26:12;;;;;;;11.48;2.92;;;;;;;;;;5041476;28;20021;-77
2023/04/04 10:28:38;;;;;;;13.40;3.70;;;;;;;;;;5042815;28;20025;-77
2023/04/04 10:31:17;;;;;;;12.63;3.30;;;;;;;;;;5042706;28;20445;-78
2023/04/04 10:33:50;;;;;;;14.35;3.47;;;;;;;;;;5040754;28;20055;-78
2023/04/04 10:36:20;;;;;;;11.18;3.33;;;;;;;;;;5042658;28;20110;-78
2023/04/04 10:38:51;;;;;;;15.55;3.17;;;;;;;;;;5045490;28;20047;-77
2023/04/04 10:41:18;;;;;;;12.10;3.80;;;;;;;;;;5047067;28;20067;-77
2023/04/04 10:43:45;;;;;;;12.98;3.13;;;;;;;;;;5047350;28;20021;-77
2023/04/04 10:46:12;;;;;;;12.32;3.30;;;;;;;;;;5053277;28;20025;-77
2023/04/04 10:48:38;;;;;;;13.52;3.92;;;;;;;;;;5054523;28;20619;-77
2023/04/04 10:51:05;;;;;;;10.38;3.50;;;;;;;;;;5045727;28;20108;-78
2023/04/04 10:53:31;;;;;;;13.05;3.28;;;;;;;;;;5046999;28;20543;-78
2023/04/04 10:55:58;;;;;;;10.38;3.10;;;;;;;;;;5047331;28;20452;-80
2023/04/04 10:58:25;;;;;;;8.80;3.78;;;;;;;;;;5046956;28;20017;-77
2023/04/04 11:00:53;;;;;;;14.57;3.22;;;;;;;;;;5049511;28;20025;-77
2023/04/04 11:03:20;;;;;;;11.15;2.75;;;;;;;;;;5042535;28;20025;-77
2023/04/04 11:05:46;;;;;;;9.13;3.03;;;;;;;;;;5045023;28;20033;-77
2023/04/04 11:08:18;;;;;;;13.57;2.85;;;;;;;;;;5049480;28;20087;-77
2023/04/04 11:10:45;;;;;;;17.00;3.17;;;;;;;;;;5043327;28;20040;-77
2023/04/04 11:13:16;;;;;;;14.63;2.78;;;;;;;;;;5046788;28;20074;-77
2023/04/04 11:15:56;;;;;;;14.60;3.90;;;;;;;;;;5046867;28;20094;-78
2023/04/04 11:18:23;;;;;;;8.85;2.85;;;;;;;;;;5043668;28;20044;-78
2023/04/04 11:20:50;;;;;;;12.10;3.30;;;;;;;;;;5042829;28;20037;-77
2023/04/04 11:23:21;;;;;;;14.65;3.15;;;;;;;;;;5040899;28;20033;-78
2023/04/04 11:25:51;;;;;;;12.33;2.73;;;;;;;;;;5041390;28;20673;-78
2023/04/04 11:28:33;;;;;;;17.13;3.28;;;;;;;;;;5042868;28;20025;-79
2023/04/04 11:31:15;;;;;;;12.35;2.83;;;;;;;;;;5042661;28;20116;-79
2023/04/04 11:33:42;;;;;;;;;;;;;;;;;;5043668;28;20112;-76
2023/04/04 11:36:12;;;;;;;12.88;2.90;;;;;;;;;;5043064;28;19916;-77
2023/04/04 11:38:39;;;;;;;12.48;4.75;;;;;;;;;;5044817;28;20032;-76
2023/04/04 11:41:09;;;;;;;13.55;3.55;;;;;;;;;;5052829;28;20040;-77
2023/04/04 11:43:44;;;;;;;9.77;2.97;;;;;;;;;;5047473;28;20189;-76
2023/04/04 11:46:10;;;;;;;9.90;2.92;;;;;;;;;;5035647;28;20029;-77
2023/04/04 11:48:41;;;;;;;14.75;3.30;;;;;;;;;;5049020;28;20811;-79
2023/04/04 11:51:08;;;;;;;13.90;3.40;;;;;;;;;;5055291;28;20647;-76
2023/04/04 11:53:34;;;;;;;9.50;2.90;;;;;;;;;;5043121;28;20032;-76
2023/04/04 11:56:01;;;;;;;15.30;4.13;;;;;;;;;;5041673;28;20044;-77
2023/04/04 11:58:27;;;;;;;9.85;3.10;;;;;;;;;;5043185;28;20074;-77
2023/04/04 12:00:54;;;;;;;14.82;3.45;;;;;;;;;;5042824;28;20033;-76
2023/04/04 12:03:20;;;;;;;10.43;2.83;;;;;;;;;;5040863;28;20504;-77
2023/04/04 12:05:47;;;;;;;24.23;4.10;;;;;;;;;;5043256;28;20414;-78
2023/04/04 12:08:14;;;;;;;12.15;3.13;;;;;;;;;;5043440;28;20872;-77
2023/04/04 12:10:43;;;;;;;12.48;3.55;;;;;;;;;;5043382;28;20079;-77
2023/04/04 12:13:09;;;;;;;13.85;3.42;;;;;;;;;;5041984;28;20075;-77
2023/04/04 12:15:36;;;;;;;7.70;2.75;;;;;;;;;;5041749;28;20116;-76
2023/04/04 12:18:03;;;;;;;13.13;2.95;;;;;;;;;;5041315;28;20049;-77
2023/04/04 12:20:29;;;;;;;10.68;2.90;;;;;;;;;;5041817;28;20563;-76
2023/04/04 12:22:56;;;;;;;14.77;3.55;;;;;;;;;;5040867;28;20048;-77
2023/04/04 12:25:23;;;;;;;8.18;3.13;;;;;;;;;;5040667;28;20029;-77
2023/04/04 12:27:50;;;;;;;11.50;3.38;;;;;;;;;;5040543;28;20020;-77
2023/04/04 12:30:17;;;;;;;14.90;3.70;;;;;;;;;;5042724;28;20067;-77
2023/04/04 12:32:45;;;;;;;9.75;3.22;;;;;;;;;;5042376;28;20033;-74
2023/04/04 12:35:12;;;;;;;12.85;3.30;;;;;;;;;;5040631;28;20025;-77
2023/04/04 12:37:40;;;;;;;14.35;2.83;;;;;;;;;;5042472;28;20037;-75
2023/04/04 12:40:06;;;;;;;11.55;3.20;;;;;;;;;;5042584;28;20033;-76
2023/04/04 12:42:34;;;;;;;10.02;3.35;;;;;;;;;;5044973;28;20061;-75
2023/04/04 12:45:02;;;;;;;9.75;2.58;;;;;;;;;;5041519;28;20028;-73
2023/04/04 12:47:31;;;;;;;14.20;3.38;;;;;;;;;;5043270;28;20076;-75
2023/04/04 12:49:57;;;;;;;11.27;3.30;;;;;;;;;;5044316;28;20118;-74
2023/04/04 12:52:29;;;;;;;14.43;3.85;;;;;;;;;;5044329;28;20029;-75
2023/04/04 12:54:57;;;;;;;42.80;7.60;;;;;;;;;;5043717;28;20025;-79
2023/04/04 12:57:24;;;;;;;18.08;4.55;;;;;;;;;;5042471;28;20107;-77
2023/04/04 12:59:54;;;;;;;14.25;3.13;;;;;;;;;;5043387;28;20021;-77
2023/04/04 13:02:22;;;;;;;10.15;2.85;;;;;;;;;;5043602;28;20032;-77
2023/04/04 13:04:53;;;;;;;15.65;3.85;;;;;;;;;;5042498;28;20020;-77
2023/04/04 13:07:31;;;;;;;14.05;3.20;;;;;;;;;;5043025;28;20033;-81
2023/04/04 13:10:04;;;;;;;11.95;2.90;;;;;;;;;;5045298;28;20059;-78
2023/04/04 13:12:49;;;;;;;9.68;3.25;;;;;;;;;;5054358;28;20024;-81
2023/04/04 13:15:15;;;;;;;19.83;4.13;;;;;;;;;;5044927;28;21607;-82
2023/04/04 13:17:43;;;;;;;9.90;3.42;;;;;;;;;;5027003;28;20062;-80
2023/04/04 13:20:09;;;;;;;13.00;3.10;;;;;;;;;;5044289;28;20102;-80
2023/04/04 13:22:36;;;;;;;13.63;3.00;;;;;;;;;;5042986;28;20069;-79
2023/04/04 13:25:03;;;;;;;8.82;2.92;;;;;;;;;;5044631;28;20516;-81
2023/04/04 13:27:29;;;;;;;11.30;2.97;;;;;;;;;;5045062;28;20103;-78
2023/04/04 13:29:55;;;;;;;15.00;3.55;;;;;;;;;;5045430;28;20558;-77
2023/04/04 13:32:22;;;;;;;12.23;3.50;;;;;;;;;;5043206;28;20025;-76
2023/04/04 13:34:48;;;;;;;13.82;3.20;;;;;;;;;;5042770;28;20028;-78
2023/04/04 13:37:14;;;;;;;9.85;3.35;;;;;;;;;;5042880;28;20385;-76
2023/04/04 13:39:40;;;;;;;11.45;3.60;;;;;;;;;;5042903;28;20032;-77
2023/04/04 13:42:06;;;;;;;13.68;2.92;;;;;;;;;;5025182;28;20077;-81
2023/04/04 13:44:33;;;;;;;11.00;3.47;;;;;;;;;;5041341;28;20489;-75
2023/04/04 13:46:59;;;;;;;12.18;2.75;;;;;;;;;;5043491;28;20108;-77
2023/04/04 13:49:25;;;;;;;11.13;3.13;;;;;;;;;;5043310;28;20226;-80
2023/04/04 13:51:52;;;;;;;10.30;2.88;;;;;;;;;;5041252;28;20055;-77
2023/04/04 13:54:18;;;;;;;13.00;2.83;;;;;;;;;;5046749;28;20170;-78
2023/04/04 13:56:46;;;;;;;11.48;2.75;;;;;;;;;;5042354;28;20036;-78
2023/04/04 13:59:12;;;;;;;12.90;3.70;;;;;;;;;;5042702;28;20032;-79
2023/04/04 14:01:49;;;;;;;6.88;2.72;;;;;;;;;;5042441;28;20503;-77
2023/04/04 14:04:17;;;;;;;7.95;2.70;;;;;;;;;;5043080;28;20025;-78
2023/04/04 14:06:45;;;;;;;8.43;3.20;;;;;;;;;;5041817;28;20021;-78
2023/04/04 14:09:14;;;;;;;6.68;2.47;;;;;;;;;;5041307;28;20032;-79
2023/04/04 14:11:40;;;;;;;8.48;2.70;;;;;;;;;;5046727;28;20123;-78
2023/04/04 14:14:06;;;;;;;11.65;2.95;;;;;;;;;;5044533;28;20044;-78
2023/04/04 14:16:35;;;;;;;16.75;2.70;;;;;;;;;;5042078;28;20025;-80
2023/04/04 14:19:01;;;;;;;16.48;3.90;;;;;;;;;;5042450;28;20025;-78
2023/04/04 14:21:48;;;;;;;;;;;;;;;;;;;;;
2023/04/04 14:24:18;;;;;;;8.32;3.05;;;;;;;;;;5040823;28;20021;-80
2023/04/04 14:26:46;;;;;;;11.10;3.40;;;;;;;;;;5040005;28;20024;-77
2023/04/04 14:29:15;;;;;;;10.82;2.85;;;;;;;;;;5041734;28;20035;-78
2023/04/04 14:31:41;;;;;;;11.80;2.83;;;;;;;;;;5042470;28;20032;-79
2023/04/04 14:34:10;;;;;;;9.15;3.20;;;;;;;;;;5045659;28;20591;-78
2023/04/04 14:36:43;;;;;;;7.72;2.78;;;;;;;;;;5041088;28;20461;-79
2023/04/04 14:39:10;;;;;;;7.57;2.80;;;;;;;;;;5039252;28;20021;-77